Cebollita Spring, Valles Caldera, New Mexico Weather observations

Data are for 10 minute period ending at time listed.
 Day   Time   Solar   Ave.   Ave.  Ave.  Vector  Max.   Baro.   Total    
  of    of     Rad.   Air    Rel.  Wind   Wind   Wind  Press.  Precip.   
Year   Day            Temp.  Hum.  Speed  Dir.   Gust                    
2015   (MST)  Kw/m2    F      %     mph   deg.    mph    mb.     in.     
-------------------------------------------------------------------------
  27   17:30   0.01   41.4    67    5.1   320    10.2   99999.0    0.00 
  27   17:40   0.00   40.9    68    4.3   317     8.4   99999.0    0.00 
  27   17:50   0.00   40.0    69    5.5   307    11.3   99999.0    0.00 
  27   18:00   0.00   39.4    70    5.6   315     9.6   99999.0    0.00 
  27   18:10   0.00   38.5    72    4.9   313     9.0   99999.0    0.00 
  27   18:20   0.00   37.0    75    4.0   325     7.2   99999.0    0.00 
  27   18:30   0.00   36.3    76    3.0   330     4.8   99999.0    0.00 
  27   18:40   0.00   35.2    78    3.1   330     5.4   99999.0    0.00 
  27   18:50   0.00   34.4    81    3.2   327     5.4   99999.0    0.00 
  27   19:00   0.00   34.0    83    3.5   336     6.0   99999.0    0.00 
  27   19:10   0.00   33.6    83    2.6   349     4.8   99999.0    0.00 
  27   19:20   0.00   33.1    84    2.2   341     5.4   99999.0    0.00 
  27   19:30   0.00   32.5    86    2.9   346     5.1   99999.0    0.00 
  27   19:40   0.00   32.2    87    5.0   326     9.3   99999.0    0.00 
  27   19:50   0.00   32.5    86    4.7   315     8.4   99999.0    0.00 
  27   20:00   0.00   33.1    84    4.8   326     7.2   99999.0    0.00 
  27   20:10   0.00   34.5    81    4.5   330     8.4   99999.0    0.00 
  27   20:20   0.00   35.3    78    4.8   325     9.0   99999.0    0.00 
  27   20:30   0.00   35.8    77    3.8   330     8.4   99999.0    0.00 
  27   20:40   0.00   35.8    76    3.7   336     6.6   99999.0    0.00 
  27   20:50   0.00   35.6    77    3.1   359     6.3   99999.0    0.00 
  27   21:00   0.00   35.7    77    3.2     8     6.6   99999.0    0.00 
  27   21:10   0.00   35.6    76    3.1    21     7.2   99999.0    0.00 
  27   21:20   0.00   35.6    77    3.4     9     7.2   99999.0    0.00 
  27   21:30   0.00   35.8    77    2.7   352     6.6   99999.0    0.00 
  27   21:40   0.00   34.9    79    3.0    10     6.6   99999.0    0.00 
  27   21:50   0.00   35.3    78    3.9   349     8.4   99999.0    0.00 
  27   22:00   0.00   35.7    77    3.7   359     7.8   99999.0    0.00 
  27   22:10   0.00   35.9    77    3.5   356     8.4   99999.0    0.00 
  27   22:20   0.00   35.2    78    3.0   349     6.6   99999.0    0.00 
  27   22:30   0.00   36.1    77    5.2   335     9.6   99999.0    0.00 
  27   22:40   0.00   36.1    76    3.6   338     6.0   99999.0    0.00 
  27   22:50   0.00   35.1    80    3.0   349     7.2   99999.0    0.00 
  27   23:00   0.00   35.2    79    2.6   359     6.0   99999.0    0.00 
  27   23:10   0.00   33.9    82    2.1   343     4.2   99999.0    0.00 
  27   23:20   0.00   32.8    84    1.2     2     3.0   99999.0    0.00 
  27   23:30   0.00   31.5    87    1.9    12     4.8   99999.0    0.00 
  27   23:40   0.00   30.7    89    2.5   357     5.1   99999.0    0.00 
  27   23:50   0.00   30.3    90    3.0   337     4.8   99999.0    0.00 
  28    0:00   0.00   30.8    91    2.4   345     6.0   99999.0    0.00 
  28    0:10   0.00   30.6    90    1.5   359     3.6   99999.0    0.00 
  28    0:20   0.00   29.7    90    0.6    32     1.8   99999.0    0.00 
  28    0:30   0.00   28.6    92    0.7    33     2.4   99999.0    0.00 
  28    0:40   0.00   28.1    94    1.4    27     3.0   99999.0    0.00 
  28    0:50   0.00   27.6    95    0.8    26     3.0   99999.0    0.00 
  28    1:00   0.00   27.0    96    0.5    23     1.8   99999.0    0.00 
  28    1:10   0.00   26.5    97    1.0    21     2.4   99999.0    0.00 
  28    1:20   0.00   26.6    98    1.4    20     3.6   99999.0    0.00 
  28    1:30   0.00   26.9    98    1.5   344     4.5   99999.0    0.00 
  28    1:40   0.00   27.3    98    1.0    26     2.4   99999.0    0.00 
  28    1:50   0.00   27.2    98    1.3    37     2.4   99999.0    0.00 
  28    2:00   0.00   27.3    98    0.3    30     1.8   99999.0    0.00 
  28    2:10   0.00   27.4    98    0.8    71     3.0   99999.0    0.00 
  28    2:20   0.00   27.6    99    0.9   123     2.4   99999.0    0.00 
  28    2:30   0.00   28.1    99    1.5    42     3.0   99999.0    0.00 
  28    2:40   0.00   28.5    98    1.9    18     3.6   99999.0    0.00 
  28    2:50   0.00   29.4    98    2.8   326    11.9   99999.0    0.00 
  28    3:00   0.00   31.8    95    3.5   318    10.2   99999.0    0.00 
  28    3:10   0.00   33.7    88    2.7   305     7.2   99999.0    0.00 
  28    3:20   0.00   34.4    86    3.9   300    10.2   99999.0    0.00 
  28    3:30   0.00   35.9    80    4.8   298    10.2   99999.0    0.00 
  28    3:40   0.00   36.7    77    5.4   292    11.3   99999.0    0.00 
  28    3:50   0.00   37.4    76    5.0   289    11.1   99999.0    0.00 
  28    4:00   0.00   37.6    77    5.9   287    12.5   99999.0    0.00 
  28    4:10   0.00   37.7    76    4.5   290     9.0   99999.0    0.00 
  28    4:20   0.00   37.7    74    3.5   304     7.2   99999.0    0.00 
  28    4:30   0.00   38.2    71    8.3   283    13.7   99999.0    0.00 
  28    4:40   0.00   38.4    71    7.8   283    14.9   99999.0    0.00 
  28    4:50   0.00   38.5    69    7.2   294    14.3   99999.0    0.00 
  28    5:00   0.00   38.2    69    6.5   298    16.1   99999.0    0.00 
  28    5:10   0.00   37.8    70    5.8   289    10.8   99999.0    0.00 
  28    5:20   0.00   37.4    70    6.1   293    10.8   99999.0    0.00 
  28    5:30   0.00   37.4    69    6.6   282    14.3   99999.0    0.00 
  28    5:40   0.00   37.2    69    7.7   289    17.9   99999.0    0.00 
  28    5:50   0.00   37.8    65    9.7   292    19.7   99999.0    0.00 
  28    6:00   0.00   37.3    64    7.9   292    16.7   99999.0    0.00 
  28    6:10   0.00   37.6    63    9.0   300    21.5   99999.0    0.00 
  28    6:20   0.00   37.2    64    6.5   291    13.7   99999.0    0.00 
  28    6:30   0.00   37.4    64    7.8   292    16.1   99999.0    0.00 
  28    6:40   0.00   37.3    65    7.7   300    19.1   99999.0    0.00 
  28    6:50   0.00   37.4    64    7.5   302    19.1   99999.0    0.00 
  28    7:00   0.00   37.1    65    7.7   302    15.5   99999.0    0.00 
  28    7:10   0.00   37.0    64    8.5   305    17.9   99999.0    0.00 
  28    7:20   0.01   37.0    64    7.5   299    17.3   99999.0    0.00 
  28    7:30   0.01   36.7    64    7.3   297    15.5   99999.0    0.00 
  28    7:40   0.01   36.9    63    7.8   300    16.1   99999.0    0.00 
  28    7:50   0.02   37.0    63    7.5   293    14.9   99999.0    0.00 
  28    8:00   0.07   37.1    62    7.0   292    16.7   99999.0    0.00 
  28    8:10   0.23   37.7    61    8.0   282    16.1   99999.0    0.00 
  28    8:20   0.27   38.2    60    7.5   288    14.3   99999.0    0.00 
  28    8:30   0.31   38.7    59    6.7   292    11.9   99999.0    0.00 
  28    8:40   0.35   39.3    57    8.6   292    14.3   99999.0    0.00 
  28    8:50   0.38   39.8    56    6.5   291    11.9   99999.0    0.00 
  28    9:00   0.41   40.2    55    6.9   286    13.1   99999.0    0.00 
  28    9:10   0.45   41.0    54    6.1   277    13.1   99999.0    0.00 
  28    9:20   0.48   41.5    52    7.6   294    11.9   99999.0    0.00 
  28    9:30   0.51   41.8    51    7.9   286    14.3   99999.0    0.00 
  28    9:40   0.54   42.5    50    7.1   299    14.3   99999.0    0.00 
  28    9:50   0.56   43.1    49    7.8   298    14.9   99999.0    0.00 
  28   10:00   0.59   43.5    48    8.2   302    16.7   99999.0    0.00 
  28   10:10   0.62   43.6    47    9.5   309    17.3   99999.0    0.00 
  28   10:20   0.62   44.1    45    8.5   298    13.1   99999.0    0.00 
  28   10:30   0.66   44.0    45    8.4   287    16.1   99999.0    0.00 
  28   10:40   0.68   45.0    42    7.5   301    16.1   99999.0    0.00 
  28   10:50   0.69   45.1    42    8.2   316    17.3   99999.0    0.00 
  28   11:00   0.71   46.0    42    6.4   293    13.7   99999.0    0.00 
  28   11:10   0.69   45.7    41    8.4   287    17.3   99999.0    0.00 
  28   11:20   0.67   44.9    43    8.4   286    15.5   99999.0    0.00 
  28   11:30   0.73   45.6    43    7.9   278    15.5   99999.0    0.00 
  28   11:40   0.74   45.3    44    8.0   288    13.7   99999.0    0.00 
  28   11:50   0.73   45.6    43    8.0   284    16.7   99999.0    0.00 
  28   12:00   0.76   46.2    42    7.0   290    16.7   99999.0    0.00 
  28   12:10   0.73   46.2    41    7.4   290    13.1   99999.0    0.00 
  28   12:20   0.68   46.6    41    7.0   288    13.1   99999.0    0.00 
  28   12:30   0.66   46.8    40    7.0   300    13.1   99999.0    0.00 
  28   12:40   0.66   46.3    40    9.0   290    16.1   99999.0    0.00 
  28   12:50   0.68   46.9    40    7.1   283    13.7   99999.0    0.00 
  28   13:00   0.64   46.5    42    7.6   282    16.7   99999.0    0.00 
  28   13:10   0.69   46.8    40    8.3   300    18.5   99999.0    0.00 
  28   13:20   0.69   47.3    40    7.7   288    13.7   99999.0    0.00 
  28   13:30   0.64   47.0    37    7.9   308    14.3   99999.0    0.00 
  28   13:40   0.62   46.5    37    7.9   301    14.3   99999.0    0.00 
  28   13:50   0.65   46.8    37    7.8   295    14.3   99999.0    0.00 
  28   14:00   0.60   46.2    38    8.3   279    14.0   99999.0    0.00 
  28   14:10   0.52   45.8    38    9.1   271    13.7   99999.0    0.00 
  28   14:20   0.57   45.6    39    8.6   281    14.3   99999.0    0.00 
  28   14:30   0.59   46.5    40    7.6   276    15.5   99999.0    0.00 
  28   14:40   0.57   46.3    41    8.3   288    14.3   99999.0    0.00 
  28   14:50   0.53   46.4    40    7.4   288    14.3   99999.0    0.00 
  28   15:00   0.49   46.5    41    7.4   277    13.7   99999.0    0.00 
  28   15:10   0.45   45.9    41    9.0   303    14.9   99999.0    0.00 
  28   15:20   0.42   45.6    41    8.0   294    16.1   99999.0    0.00 
  28   15:30   0.40   45.2    41    8.4   290    14.9   99999.0    0.00 
  28   15:40   0.34   45.6    42    6.9   282    16.1   99999.0    0.00 
  28   15:50   0.34   44.8    44    8.3   294    16.7   99999.0    0.00 
  28   16:00   0.31   44.6    46    7.6   283    16.1   99999.0    0.00 
  28   16:10   0.26   44.1    46    8.3   289    16.1   99999.0    0.00 
  28   16:20   0.22   43.5    47    7.4   293    13.7   99999.0    0.00 
  28   16:30   0.19   43.1    48    6.8   300    13.1   99999.0    0.00 
  28   16:40   0.15   42.8    48    6.2   306    13.7   99999.0    0.00 
  28   16:50   0.14   41.8    50    7.1   296    12.5   99999.0    0.00 
  28   17:00   0.09   41.0    54    6.0   301    10.8   99999.0    0.00 
  28   17:10   0.04   39.9    57    5.2   310    12.5   99999.0    0.00 
  28   17:20   0.02   39.4    59    5.5   314    10.8   99999.0    0.00 

Return to Cebollita Spring, Valles Caldera graphs page.


Western Regional Climate Center,wrcc@dri.edu